Time;durP1;ratioP1;P1;durP2;ratioP2;P2;SDS_P1;SDS_P2;PMS_P1;PMS_P2;Temp;Humidity;BMP_temperature;BMP_pressure;BME280_temperature;BME280_humidity;BME280_pressure;Samples;Min_cycle;Max_cycle;Signal;HPM_P1;HPM_P2
2022/04/21 00:00:14;;;;;;;9.68;3.38;;;;;;;;;;4978507;28;20062;-58
2022/04/21 00:02:43;;;;;;;10.48;3.47;;;;;;;;;;4991673;28;20060;-57
2022/04/21 00:05:11;;;;;;;8.65;2.60;;;;;;;;;;4986174;28;20054;-58
2022/04/21 00:07:37;;;;;;;7.35;3.05;;;;;;;;;;5008069;28;20153;-58
2022/04/21 00:10:04;;;;;;;6.40;2.67;;;;;;;;;;4998588;28;20062;-57
2022/04/21 00:12:33;;;;;;;5.80;2.28;;;;;;;;;;4987877;28;20050;-57
2022/04/21 00:15:00;;;;;;;6.47;2.55;;;;;;;;;;4985790;28;20069;-55
2022/04/21 00:17:27;;;;;;;5.03;2.10;;;;;;;;;;4991222;28;20145;-57
2022/04/21 00:19:55;;;;;;;5.57;2.67;;;;;;;;;;4985938;28;20057;-58
2022/04/21 00:25:08;;;;;;;7.93;2.78;;;;;;;;;;4986380;28;20050;-58
2022/04/21 00:27:37;;;;;;;7.03;3.25;;;;;;;;;;4992107;28;20046;-56
2022/04/21 00:30:06;;;;;;;9.32;3.55;;;;;;;;;;4990536;28;20133;-60
2022/04/21 00:32:33;;;;;;;6.30;3.00;;;;;;;;;;4985911;28;20064;-60
2022/04/21 00:35:02;;;;;;;8.57;2.97;;;;;;;;;;4991044;28;20078;-60
2022/04/21 00:37:28;;;;;;;;;;;;;;;;;;5002664;28;20057;-59
2022/04/21 00:39:54;;;;;;;5.07;2.40;;;;;;;;;;5011184;28;19956;-59
2022/04/21 00:42:21;;;;;;;6.22;2.85;;;;;;;;;;4989518;28;20073;-59
2022/04/21 00:44:49;;;;;;;8.20;3.25;;;;;;;;;;4991256;28;20050;-60
2022/04/21 00:47:17;;;;;;;6.70;2.72;;;;;;;;;;4985467;28;20092;-60
2022/04/21 00:49:44;;;;;;;5.13;2.47;;;;;;;;;;4990828;28;20099;-59
2022/04/21 00:52:12;;;;;;;8.25;3.30;;;;;;;;;;4975461;28;20066;-60
2022/04/21 00:54:39;;;;;;;5.00;2.42;;;;;;;;;;4988333;28;20105;-57
2022/04/21 00:57:05;;;;;;;6.45;2.63;;;;;;;;;;4990474;28;20081;-59
2022/04/21 00:59:33;;;;;;;8.10;2.55;;;;;;;;;;4991409;28;20069;-60
2022/04/21 01:04:45;;;;;;;4.97;2.45;;;;;;;;;;4989302;28;20355;-59
2022/04/21 01:07:13;;;;;;;7.72;2.72;;;;;;;;;;5000177;28;20062;-60
2022/04/21 01:09:40;;;;;;;5.28;2.60;;;;;;;;;;4990769;28;20054;-58
2022/04/21 01:12:09;;;;;;;8.80;3.00;;;;;;;;;;4985070;28;20050;-58
2022/04/21 01:14:37;;;;;;;5.32;2.45;;;;;;;;;;4990384;28;20050;-58
2022/04/21 01:17:03;;;;;;;9.27;3.28;;;;;;;;;;4983929;28;20054;-56
2022/04/21 01:19:30;;;;;;;5.88;2.50;;;;;;;;;;4990601;28;20045;-57
2022/04/21 01:21:58;;;;;;;5.22;2.25;;;;;;;;;;4991602;28;20053;-59
2022/04/21 01:24:26;;;;;;;7.47;3.40;;;;;;;;;;4967071;28;20056;-57
2022/04/21 01:26:54;;;;;;;10.75;3.72;;;;;;;;;;5004881;28;20064;-59
2022/04/21 01:29:20;;;;;;;6.78;3.17;;;;;;;;;;4983411;28;20050;-60
2022/04/21 01:31:47;;;;;;;6.07;2.75;;;;;;;;;;4989090;28;20058;-60
2022/04/21 01:34:14;;;;;;;7.68;2.83;;;;;;;;;;4985883;28;20054;-55
2022/04/21 01:41:08;;;;;;;5.75;2.60;;;;;;;;;;4990669;28;20057;-58
2022/04/21 01:42:15;;;;;;;6.28;3.17;;;;;;;;;;4989825;28;20120;-57
2022/04/21 01:44:45;;;;;;;7.30;2.90;;;;;;;;;;4983975;28;20092;-58
2022/04/21 01:47:12;;;;;;;6.30;2.70;;;;;;;;;;4990311;28;20054;-57
2022/04/21 01:49:38;;;;;;;8.18;2.92;;;;;;;;;;4983791;28;20054;-57
2022/04/21 01:52:05;;;;;;;5.40;2.35;;;;;;;;;;4989720;28;20058;-56
2022/04/21 01:54:33;;;;;;;4.88;2.47;;;;;;;;;;4984676;28;20053;-58
2022/04/21 01:57:00;;;;;;;5.95;2.55;;;;;;;;;;4990516;28;20058;-57
2022/04/21 01:59:26;;;;;;;5.50;2.40;;;;;;;;;;4994571;28;20143;-58
2022/04/21 02:01:53;;;;;;;6.05;2.65;;;;;;;;;;4997029;28;20116;-55
2022/04/21 02:04:21;;;;;;;5.70;2.35;;;;;;;;;;4988398;28;20072;-58
2022/04/21 02:06:48;;;;;;;7.78;2.95;;;;;;;;;;4990897;28;20062;-59
2022/04/21 02:09:15;;;;;;;8.05;3.13;;;;;;;;;;4988908;28;20116;-56
2022/04/21 02:11:43;;;;;;;6.50;2.78;;;;;;;;;;4994293;28;20130;-58
2022/04/21 02:14:11;;;;;;;10.18;3.33;;;;;;;;;;4991335;28;20052;-57
2022/04/21 02:16:37;;;;;;;7.30;3.28;;;;;;;;;;4970920;28;20050;-59
2022/04/21 02:19:04;;;;;;;9.02;3.13;;;;;;;;;;4973673;28;20056;-59
2022/04/21 02:21:31;;;;;;;6.35;2.65;;;;;;;;;;4969110;28;20057;-59
2022/04/21 02:23:57;;;;;;;6.40;2.63;;;;;;;;;;4989486;28;20052;-58
2022/04/21 02:26:23;;;;;;;8.10;2.67;;;;;;;;;;4997201;28;20042;-57
2022/04/21 02:28:52;;;;;;;4.78;2.45;;;;;;;;;;4990326;28;20054;-58
2022/04/21 02:31:18;;;;;;;6.40;2.70;;;;;;;;;;4975337;28;20058;-59
2022/04/21 02:33:45;;;;;;;7.38;3.00;;;;;;;;;;4991108;28;20054;-56
2022/04/21 02:36:12;;;;;;;8.60;3.22;;;;;;;;;;4987572;28;20062;-57
2022/04/21 02:38:38;;;;;;;5.10;2.60;;;;;;;;;;4992681;28;20054;-57
2022/04/21 02:41:06;;;;;;;6.68;2.72;;;;;;;;;;4980878;28;20054;-58
2022/04/21 02:43:33;;;;;;;7.07;3.28;;;;;;;;;;4986000;28;20175;-57
2022/04/21 02:46:01;;;;;;;11.55;3.40;;;;;;;;;;4987771;28;20100;-59
2022/04/21 02:48:27;;;;;;;8.68;3.40;;;;;;;;;;4993902;28;20053;-58
2022/04/21 02:50:54;;;;;;;8.85;2.80;;;;;;;;;;5003860;28;20112;-57
2022/04/21 02:57:19;;;;;;;6.53;2.90;;;;;;;;;;4993065;28;20050;-57
2022/04/21 02:58:54;;;;;;;7.13;2.65;;;;;;;;;;4993485;28;20064;-58
2022/04/21 03:01:22;;;;;;;7.68;2.50;;;;;;;;;;4988647;28;20193;-59
2022/04/21 03:03:48;;;;;;;5.90;2.60;;;;;;;;;;4994723;28;20050;-58
2022/04/21 03:06:15;;;;;;;6.95;2.70;;;;;;;;;;4991263;28;20339;-57
2022/04/21 03:08:41;;;;;;;8.63;3.65;;;;;;;;;;4975329;28;20097;-56
2022/04/21 03:11:08;;;;;;;6.70;2.70;;;;;;;;;;4975544;28;20046;-59
2022/04/21 03:13:35;;;;;;;7.15;2.70;;;;;;;;;;5002870;28;20111;-59
2022/04/21 03:16:01;;;;;;;6.53;2.72;;;;;;;;;;5029418;28;20049;-59
2022/04/21 03:18:29;;;;;;;8.15;3.88;;;;;;;;;;4989439;28;20058;-59
2022/04/21 03:26:25;;;;;;;5.40;2.83;;;;;;;;;;4992248;28;20136;-57
2022/04/21 03:28:52;;;;;;;6.13;2.90;;;;;;;;;;4986561;28;20045;-56
2022/04/21 03:31:18;;;;;;;7.97;3.33;;;;;;;;;;5008770;28;20056;-58
2022/04/21 03:33:48;;;;;;;5.43;2.70;;;;;;;;;;4985882;28;20050;-55
2022/04/21 03:36:15;;;;;;;4.93;2.58;;;;;;;;;;5005811;28;20089;-55
2022/04/21 03:38:41;;;;;;;6.55;2.88;;;;;;;;;;5001681;28;20061;-54
2022/04/21 03:41:08;;;;;;;6.45;2.67;;;;;;;;;;4992127;28;20092;-57
2022/04/21 03:43:35;;;;;;;5.47;2.65;;;;;;;;;;4981517;28;20129;-55
2022/04/21 03:46:01;;;;;;;7.53;2.60;;;;;;;;;;4991437;28;20053;-57
2022/04/21 03:48:29;;;;;;;6.00;3.00;;;;;;;;;;4986036;28;20149;-56
2022/04/21 03:50:57;;;;;;;6.90;2.37;;;;;;;;;;4992065;28;20041;-57
2022/04/21 03:53:24;;;;;;;6.35;2.72;;;;;;;;;;4985210;28;20316;-57
2022/04/21 03:55:51;;;;;;;6.88;3.10;;;;;;;;;;4992443;28;20076;-57
2022/04/21 03:58:17;;;;;;;6.30;2.90;;;;;;;;;;4975110;28;20060;-56
2022/04/21 04:00:44;;;;;;;9.85;2.80;;;;;;;;;;4991235;28;20065;-57
2022/04/21 04:03:10;;;;;;;6.28;2.80;;;;;;;;;;4991612;28;20101;-57
2022/04/21 04:05:37;;;;;;;6.65;2.80;;;;;;;;;;4968901;28;20058;-57
2022/04/21 04:10:55;;;;;;;9.60;2.83;;;;;;;;;;4986038;28;20152;-59
2022/04/21 04:13:22;;;;;;;8.02;3.08;;;;;;;;;;4991431;28;20077;-56
2022/04/21 04:15:49;;;;;;;6.10;2.95;;;;;;;;;;5002222;28;20060;-56
2022/04/21 04:18:16;;;;;;;8.07;3.13;;;;;;;;;;4991321;28;20092;-57
2022/04/21 04:20:43;;;;;;;5.82;2.40;;;;;;;;;;4984853;28;20136;-56
2022/04/21 04:23:11;;;;;;;7.50;2.70;;;;;;;;;;4991471;28;20112;-58
2022/04/21 04:25:37;;;;;;;5.47;2.70;;;;;;;;;;4974908;28;20148;-58
2022/04/21 04:28:04;;;;;;;7.28;2.78;;;;;;;;;;4971583;28;20059;-59
2022/04/21 04:30:31;;;;;;;5.93;2.83;;;;;;;;;;4975853;28;20108;-58
2022/04/21 04:32:58;;;;;;;6.57;3.08;;;;;;;;;;4992802;28;20058;-56
2022/04/21 04:35:29;;;;;;;7.97;3.00;;;;;;;;;;4985312;28;20045;-57
2022/04/21 04:37:56;;;;;;;6.60;2.40;;;;;;;;;;4991849;28;20054;-58
2022/04/21 04:40:24;;;;;;;6.53;2.70;;;;;;;;;;4982444;28;20144;-59
2022/04/21 04:42:50;;;;;;;8.73;2.60;;;;;;;;;;4973156;28;20127;-57
2022/04/21 04:48:01;;;;;;;5.45;2.28;;;;;;;;;;4992326;28;20061;-58
2022/04/21 04:50:27;;;;;;;8.63;3.40;;;;;;;;;;4984507;28;20192;-59
2022/04/21 04:52:57;;;;;;;7.70;2.80;;;;;;;;;;4991251;28;20057;-55
2022/04/21 04:55:25;;;;;;;7.15;3.00;;;;;;;;;;4986173;28;20057;-58
2022/04/21 04:57:52;;;;;;;7.32;3.03;;;;;;;;;;4987108;28;20117;-55
2022/04/21 05:00:18;;;;;;;7.00;3.38;;;;;;;;;;4991877;28;20049;-52
2022/04/21 05:02:45;;;;;;;11.18;4.38;;;;;;;;;;4984771;28;20154;-58
2022/04/21 05:05:12;;;;;;;9.50;3.30;;;;;;;;;;4988400;28;20136;-56
2022/04/21 05:07:40;;;;;;;6.22;2.97;;;;;;;;;;4984061;28;20066;-57
2022/04/21 05:10:07;;;;;;;6.53;2.80;;;;;;;;;;4988199;28;20100;-52
2022/04/21 05:12:35;;;;;;;6.20;2.50;;;;;;;;;;4982989;28;20117;-56
2022/04/21 05:15:02;;;;;;;8.00;3.47;;;;;;;;;;4989046;28;20054;-57
2022/04/21 05:17:29;;;;;;;7.07;2.83;;;;;;;;;;4984198;28;20336;-57
2022/04/21 05:19:56;;;;;;;5.53;2.80;;;;;;;;;;4991955;28;20050;-57
2022/04/21 05:22:26;;;;;;;5.32;2.53;;;;;;;;;;4984337;28;20132;-58
2022/04/21 05:24:54;;;;;;;6.75;3.10;;;;;;;;;;4990567;28;20054;-58
2022/04/21 05:27:20;;;;;;;9.70;3.30;;;;;;;;;;4987305;28;20057;-57
2022/04/21 05:32:35;;;;;;;4.63;2.38;;;;;;;;;;4988242;28;20065;-59
2022/04/21 05:35:03;;;;;;;8.20;2.70;;;;;;;;;;4992260;28;20057;-57
2022/04/21 05:37:29;;;;;;;7.88;2.40;;;;;;;;;;4985890;28;20074;-57
2022/04/21 05:39:56;;;;;;;9.00;2.65;;;;;;;;;;4994623;28;20094;-59
2022/04/21 05:42:23;;;;;;;5.18;2.42;;;;;;;;;;4988350;28;20049;-57
2022/04/21 05:44:53;;;;;;;6.70;2.90;;;;;;;;;;4994350;28;20141;-58
2022/04/21 05:47:20;;;;;;;7.43;3.03;;;;;;;;;;5013176;28;20069;-54
2022/04/21 05:49:47;;;;;;;7.32;3.40;;;;;;;;;;5007652;28;20077;-55
2022/04/21 05:52:14;;;;;;;7.53;3.17;;;;;;;;;;4993423;28;20072;-57
2022/04/21 05:54:42;;;;;;;4.32;2.30;;;;;;;;;;4987512;28;20110;-58
2022/04/21 05:57:10;;;;;;;7.95;3.13;;;;;;;;;;4991855;28;20108;-53
2022/04/21 05:59:37;;;;;;;5.10;2.50;;;;;;;;;;4969529;28;20094;-53
2022/04/21 06:02:06;;;;;;;6.65;2.90;;;;;;;;;;4990784;28;20054;-54
2022/04/21 06:04:33;;;;;;;6.55;2.85;;;;;;;;;;4978556;28;20089;-60
2022/04/21 06:06:59;;;;;;;5.03;2.63;;;;;;;;;;4993494;28;20122;-59
2022/04/21 06:09:26;;;;;;;5.95;2.50;;;;;;;;;;4987556;28;20064;-58
2022/04/21 06:11:53;;;;;;;4.93;2.40;;;;;;;;;;4993625;28;20064;-56
2022/04/21 06:14:19;;;;;;;6.43;3.00;;;;;;;;;;4987975;28;20070;-56
2022/04/21 06:16:48;;;;;;;5.55;2.35;;;;;;;;;;4996713;28;20054;-55
2022/04/21 06:19:16;;;;;;;6.43;3.00;;;;;;;;;;4987012;28;20089;-56
2022/04/21 06:21:42;;;;;;;7.85;3.38;;;;;;;;;;4997375;28;20046;-55
2022/04/21 06:24:10;;;;;;;5.53;2.40;;;;;;;;;;4988310;28;20160;-57
2022/04/21 06:26:36;;;;;;;6.15;3.03;;;;;;;;;;4995583;28;20053;-51
2022/04/21 06:29:03;;;;;;;5.07;2.53;;;;;;;;;;4986931;28;20060;-57
2022/04/21 06:31:30;;;;;;;7.20;2.70;;;;;;;;;;4994741;28;20108;-59
2022/04/21 06:33:57;;;;;;;8.18;3.00;;;;;;;;;;4993637;28;20137;-59
2022/04/21 06:36:26;;;;;;;5.53;2.47;;;;;;;;;;4987825;28;20054;-58
2022/04/21 06:38:52;;;;;;;6.55;2.17;;;;;;;;;;4995331;28;20064;-57
2022/04/21 06:41:19;;;;;;;5.63;2.55;;;;;;;;;;4985556;28;20104;-57
2022/04/21 06:49:15;;;;;;;6.40;2.72;;;;;;;;;;4984012;28;20070;-59
2022/04/21 06:51:44;;;;;;;4.97;2.53;;;;;;;;;;4987332;28;20057;-54
2022/04/21 06:54:12;;;;;;;8.35;2.72;;;;;;;;;;4995178;28;20050;-57
2022/04/21 06:56:38;;;;;;;5.75;2.92;;;;;;;;;;4986089;28;20045;-55
2022/04/21 06:59:08;;;;;;;6.50;2.78;;;;;;;;;;4992399;28;20054;-58
2022/04/21 07:01:35;;;;;;;6.75;2.80;;;;;;;;;;4986129;28;20061;-57
2022/04/21 07:04:02;;;;;;;4.45;2.13;;;;;;;;;;4989781;28;20085;-56
2022/04/21 07:06:28;;;;;;;6.80;2.63;;;;;;;;;;4986130;28;20092;-58
2022/04/21 07:08:56;;;;;;;5.05;2.30;;;;;;;;;;4994038;28;20112;-57
2022/04/21 07:11:23;;;;;;;5.88;2.38;;;;;;;;;;4986802;28;20042;-58
2022/04/21 07:13:51;;;;;;;4.53;2.10;;;;;;;;;;4994696;28;20108;-57
2022/04/21 07:16:18;;;;;;;3.10;1.70;;;;;;;;;;4987882;28;20045;-55
2022/04/21 07:18:44;;;;;;;6.50;2.40;;;;;;;;;;4992916;28;20084;-60
2022/04/21 07:21:11;;;;;;;7.18;2.33;;;;;;;;;;4987883;28;20136;-59
2022/04/21 07:23:39;;;;;;;8.52;2.60;;;;;;;;;;4990951;28;20050;-59
2022/04/21 07:26:07;;;;;;;7.07;2.38;;;;;;;;;;4992328;28;20050;-58
2022/04/21 07:28:33;;;;;;;6.53;2.65;;;;;;;;;;4983989;28;20061;-56
2022/04/21 07:31:00;;;;;;;5.38;2.63;;;;;;;;;;4989775;28;20064;-56
2022/04/21 07:33:28;;;;;;;4.77;2.23;;;;;;;;;;4985345;28;20115;-57
2022/04/21 07:35:54;;;;;;;5.63;2.30;;;;;;;;;;4991571;28;20304;-56
2022/04/21 07:38:21;;;;;;;4.90;2.20;;;;;;;;;;4985248;28;20140;-58
2022/04/21 07:40:50;;;;;;;6.60;2.60;;;;;;;;;;4994588;28;20049;-59
2022/04/21 07:43:18;;;;;;;5.32;2.08;;;;;;;;;;4986029;28;20057;-58
2022/04/21 07:45:45;;;;;;;6.80;2.53;;;;;;;;;;4991698;28;20058;-60
2022/04/21 07:48:12;;;;;;;7.05;2.42;;;;;;;;;;4983078;28;20153;-57
2022/04/21 07:50:38;;;;;;;6.03;2.25;;;;;;;;;;4991202;28;20045;-55
2022/04/21 07:53:13;;;;;;;5.78;2.00;;;;;;;;;;4988434;28;20056;-56
2022/04/21 07:55:39;;;;;;;5.07;2.20;;;;;;;;;;4992563;28;20067;-57
2022/04/21 07:58:06;;;;;;;6.97;2.50;;;;;;;;;;5003220;28;20084;-57
2022/04/21 08:00:36;;;;;;;9.50;2.30;;;;;;;;;;4992999;28;20120;-56
2022/04/21 08:03:03;;;;;;;7.13;2.55;;;;;;;;;;4983844;28;20093;-57
2022/04/21 08:05:30;;;;;;;4.53;1.98;;;;;;;;;;5005459;28;20054;-57
2022/04/21 08:07:57;;;;;;;9.55;3.15;;;;;;;;;;4984622;28;20054;-58
2022/04/21 08:10:25;;;;;;;4.38;1.85;;;;;;;;;;4991380;28;20049;-57
2022/04/21 08:12:52;;;;;;;5.07;1.80;;;;;;;;;;4992966;28;20058;-56
2022/04/21 08:15:22;;;;;;;4.93;1.98;;;;;;;;;;4987031;28;20052;-55
2022/04/21 08:17:51;;;;;;;5.68;2.05;;;;;;;;;;4991593;28;20061;-56
2022/04/21 08:20:17;;;;;;;;;;;;;;;;;;5000203;28;20081;-58
2022/04/21 08:22:44;;;;;;;4.72;1.70;;;;;;;;;;5008580;28;19984;-58
2022/04/21 08:33:36;;;;;;;3.15;1.30;;;;;;;;;;4987087;28;20080;-56
2022/04/21 08:36:03;;;;;;;3.30;1.40;;;;;;;;;;4984724;28;20140;-58
2022/04/21 08:38:30;;;;;;;4.03;1.40;;;;;;;;;;4989691;28;20049;-59
2022/04/21 08:40:58;;;;;;;3.13;1.30;;;;;;;;;;4985730;28;20076;-57
2022/04/21 08:43:33;;;;;;;2.33;1.20;;;;;;;;;;4989142;28;20085;-59
2022/04/21 08:46:00;;;;;;;3.67;1.42;;;;;;;;;;4983501;28;20050;-57
2022/04/21 08:48:27;;;;;;;3.95;1.15;;;;;;;;;;4989806;28;20053;-57
2022/04/21 08:50:55;;;;;;;3.75;1.38;;;;;;;;;;4985789;28;20064;-58
2022/04/21 08:53:23;;;;;;;1.98;1.15;;;;;;;;;;4992558;28;20063;-58
2022/04/21 08:55:50;;;;;;;2.75;1.38;;;;;;;;;;4988019;28;20058;-58
2022/04/21 08:58:17;;;;;;;3.60;1.50;;;;;;;;;;4990159;28;20056;-58
2022/04/21 09:00:44;;;;;;;3.13;1.17;;;;;;;;;;4987029;28;20058;-60
2022/04/21 09:03:11;;;;;;;4.95;1.50;;;;;;;;;;4990270;28;20050;-59
2022/04/21 09:05:37;;;;;;;3.60;1.40;;;;;;;;;;4983784;28;20056;-59
2022/04/21 09:08:06;;;;;;;2.92;1.52;;;;;;;;;;4988433;28;20061;-58
2022/04/21 09:10:33;;;;;;;3.00;1.45;;;;;;;;;;4986743;28;20068;-58
2022/04/21 09:13:00;;;;;;;2.70;1.25;;;;;;;;;;4987514;28;20132;-60
2022/04/21 09:15:28;;;;;;;3.95;1.25;;;;;;;;;;4990572;28;20054;-58
2022/04/21 09:17:56;;;;;;;2.47;1.35;;;;;;;;;;4989823;28;20053;-59
2022/04/21 09:20:23;;;;;;;2.67;1.20;;;;;;;;;;4989251;28;20050;-59
2022/04/21 09:22:52;;;;;;;3.85;1.40;;;;;;;;;;4985319;28;20053;-60
2022/04/21 09:25:21;;;;;;;3.03;1.20;;;;;;;;;;4992908;28;20060;-58
2022/04/21 09:27:49;;;;;;;2.22;1.20;;;;;;;;;;5001853;28;20058;-60
2022/04/21 09:30:16;;;;;;;4.00;1.20;;;;;;;;;;4991480;28;20057;-58
2022/04/21 09:32:50;;;;;;;6.05;1.20;;;;;;;;;;4983734;28;20050;-59
2022/04/21 09:35:16;;;;;;;2.95;1.30;;;;;;;;;;4990196;28;20100;-60
2022/04/21 09:37:48;;;;;;;3.78;1.50;;;;;;;;;;4983201;28;20053;-59
2022/04/21 09:40:15;;;;;;;2.97;1.55;;;;;;;;;;4991446;28;20060;-59
2022/04/21 09:42:43;;;;;;;4.82;1.35;;;;;;;;;;4988628;28;20100;-56
2022/04/21 09:47:55;;;;;;;2.50;1.38;;;;;;;;;;4986123;28;20141;-57
2022/04/21 09:50:25;;;;;;;4.18;1.48;;;;;;;;;;4991686;28;20057;-58
2022/04/21 09:52:52;;;;;;;4.35;1.20;;;;;;;;;;4986203;28;20057;-58
2022/04/21 09:55:22;;;;;;;2.88;1.33;;;;;;;;;;4993366;28;20077;-58
2022/04/21 09:57:52;;;;;;;4.18;1.10;;;;;;;;;;4981862;28;20049;-58
2022/04/21 10:00:21;;;;;;;2.65;1.25;;;;;;;;;;4992603;28;20058;-58
2022/04/21 10:02:49;;;;;;;6.30;1.25;;;;;;;;;;4983984;28;20053;-59
2022/04/21 10:05:17;;;;;;;2.50;1.30;;;;;;;;;;4990674;28;20053;-59
2022/04/21 10:07:45;;;;;;;2.05;1.00;;;;;;;;;;4982401;28;20057;-59
2022/04/21 10:10:11;;;;;;;3.15;1.48;;;;;;;;;;4989925;28;20085;-59
2022/04/21 10:12:38;;;;;;;3.05;1.20;;;;;;;;;;4992644;28;20054;-58
2022/04/21 10:15:08;;;;;;;3.42;1.25;;;;;;;;;;4983337;28;20061;-58
2022/04/21 10:17:35;;;;;;;1.88;1.13;;;;;;;;;;4989429;28;20046;-58
2022/04/21 10:20:02;;;;;;;8.10;1.20;;;;;;;;;;4984042;28;20140;-58
2022/04/21 10:22:28;;;;;;;14.15;2.20;;;;;;;;;;4994688;28;20054;-58
2022/04/21 10:24:57;;;;;;;9.07;1.55;;;;;;;;;;4990413;28;20091;-58
2022/04/21 10:27:36;;;;;;;6.18;1.48;;;;;;;;;;5009287;28;20064;-58
2022/04/21 10:30:03;;;;;;;4.00;1.13;;;;;;;;;;5006183;28;20045;-59
2022/04/21 10:32:45;;;;;;;3.80;1.60;;;;;;;;;;4992669;28;20103;-59
2022/04/21 10:35:19;;;;;;;3.70;1.42;;;;;;;;;;4986859;28;20050;-59
2022/04/21 10:37:46;;;;;;;5.65;1.23;;;;;;;;;;4993802;28;20057;-59
2022/04/21 10:40:14;;;;;;;3.20;1.25;;;;;;;;;;4989628;28;20100;-58
2022/04/21 10:42:58;;;;;;;3.58;1.33;;;;;;;;;;4992890;28;20046;-58
2022/04/21 10:45:28;;;;;;;2.13;1.15;;;;;;;;;;4987976;28;20065;-59
2022/04/21 10:48:05;;;;;;;3.10;1.15;;;;;;;;;;4994262;28;20058;-58
2022/04/21 10:50:33;;;;;;;4.82;1.30;;;;;;;;;;4989410;28;20145;-59
2022/04/21 10:58:50;;;;;;;5.80;1.38;;;;;;;;;;4994470;28;20069;-59
2022/04/21 11:01:17;;;;;;;2.80;1.13;;;;;;;;;;4987065;28;20058;-59
2022/04/21 11:03:45;;;;;;;6.10;1.63;;;;;;;;;;4994059;28;20046;-60
2022/04/21 11:06:13;;;;;;;4.38;1.55;;;;;;;;;;4986133;28;20050;-60
2022/04/21 11:08:40;;;;;;;4.30;1.45;;;;;;;;;;4978326;28;20117;-60
2022/04/21 11:11:07;;;;;;;8.23;1.30;;;;;;;;;;4985312;28;20058;-58
2022/04/21 11:13:41;;;;;;;7.13;1.50;;;;;;;;;;4988291;28;20058;-58
2022/04/21 11:16:08;;;;;;;3.63;1.55;;;;;;;;;;4963958;28;20066;-60
2022/04/21 11:18:35;;;;;;;5.45;1.75;;;;;;;;;;4988177;28;20054;-59
2022/04/21 11:21:23;;;;;;;3.53;1.30;;;;;;;;;;4969226;28;20054;-59
2022/04/21 11:24:03;;;;;;;4.68;1.60;;;;;;;;;;4992044;28;20109;-59
2022/04/21 11:26:31;;;;;;;4.55;1.30;;;;;;;;;;4973520;28;20052;-59
2022/04/21 11:29:04;;;;;;;4.55;1.55;;;;;;;;;;4990201;28;20054;-59
2022/04/21 11:31:31;;;;;;;2.72;1.23;;;;;;;;;;4967407;28;20109;-60
2022/04/21 11:34:02;;;;;;;4.50;1.58;;;;;;;;;;4976375;28;20065;-59
2022/04/21 11:36:37;;;;;;;3.63;1.73;;;;;;;;;;4974601;28;20073;-59
2022/04/21 11:39:07;;;;;;;3.13;1.45;;;;;;;;;;4990148;28;20054;-59
2022/04/21 11:41:35;;;;;;;5.93;1.80;;;;;;;;;;4968969;28;20060;-59
2022/04/21 11:44:02;;;;;;;1.95;1.00;;;;;;;;;;4974422;28;20050;-59
2022/04/21 11:46:28;;;;;;;4.43;1.40;;;;;;;;;;4968812;28;20050;-59
2022/04/21 11:49:00;;;;;;;2.63;1.33;;;;;;;;;;4975328;28;20144;-58
2022/04/21 11:51:27;;;;;;;2.60;1.23;;;;;;;;;;5002494;28;20054;-59
2022/04/21 11:54:03;;;;;;;3.03;1.52;;;;;;;;;;4984350;28;20050;-59
2022/04/21 11:56:29;;;;;;;3.13;1.38;;;;;;;;;;4989659;28;20077;-61
2022/04/21 11:58:57;;;;;;;3.50;1.23;;;;;;;;;;4971961;28;20058;-59
2022/04/21 12:06:55;;;;;;;3.15;1.40;;;;;;;;;;4973559;28;20183;-59
2022/04/21 12:09:24;;;;;;;2.45;0.93;;;;;;;;;;4962155;28;20141;-59
2022/04/21 12:11:52;;;;;;;2.72;1.10;;;;;;;;;;4968458;28;20100;-60
2022/04/21 12:14:19;;;;;;;1.90;0.95;;;;;;;;;;4968569;28;20054;-59
2022/04/21 12:16:47;;;;;;;2.85;1.33;;;;;;;;;;4970085;28;20054;-58
2022/04/21 12:19:14;;;;;;;;;;;;;;;;;;4982645;28;20081;-58
2022/04/21 12:21:40;;;;;;;3.80;1.25;;;;;;;;;;4970690;28;20005;-61
2022/04/21 12:24:14;;;;;;;5.03;1.73;;;;;;;;;;4966793;28;20109;-58
2022/04/21 12:26:48;;;;;;;3.67;1.17;;;;;;;;;;4973149;28;20054;-58
2022/04/21 12:29:15;;;;;;;2.65;1.45;;;;;;;;;;4965062;28;20058;-58
2022/04/21 12:31:42;;;;;;;3.22;1.30;;;;;;;;;;4970809;28;20042;-59
2022/04/21 12:34:10;;;;;;;3.15;1.08;;;;;;;;;;4968495;28;20058;-59
2022/04/21 12:36:36;;;;;;;2.45;1.23;;;;;;;;;;4975690;28;20076;-60
2022/04/21 12:39:03;;;;;;;1.58;1.00;;;;;;;;;;4969415;28;20056;-59
2022/04/21 12:41:30;;;;;;;3.42;1.60;;;;;;;;;;4972605;28;20077;-59
2022/04/21 12:44:00;;;;;;;3.25;1.67;;;;;;;;;;4964918;28;20057;-59
2022/04/21 12:46:28;;;;;;;3.22;1.50;;;;;;;;;;4973485;28;20061;-59
2022/04/21 12:48:55;;;;;;;5.22;1.42;;;;;;;;;;4965627;28;20141;-59
2022/04/21 12:51:22;;;;;;;3.20;1.70;;;;;;;;;;4971291;28;20054;-60
2022/04/21 12:53:59;;;;;;;3.10;1.42;;;;;;;;;;4969934;28;20054;-59
2022/04/21 12:56:33;;;;;;;3.42;1.42;;;;;;;;;;4989333;28;20138;-58
2022/04/21 12:59:02;;;;;;;3.80;1.50;;;;;;;;;;4972968;28;20054;-59
2022/04/21 13:01:29;;;;;;;4.13;1.52;;;;;;;;;;4963684;28;20060;-59
2022/04/21 13:03:58;;;;;;;5.88;2.03;;;;;;;;;;4972697;28;20539;-59
2022/04/21 13:06:26;;;;;;;2.85;1.80;;;;;;;;;;4962473;28;20109;-58
2022/04/21 13:08:52;;;;;;;3.67;1.38;;;;;;;;;;5006193;28;20058;-59
2022/04/21 13:11:19;;;;;;;2.72;1.70;;;;;;;;;;4986382;28;20058;-59
2022/04/21 13:13:47;;;;;;;4.90;1.50;;;;;;;;;;4990462;28;20061;-58
2022/04/21 13:16:15;;;;;;;4.13;1.53;;;;;;;;;;5001817;28;20050;-59
2022/04/21 13:18:41;;;;;;;4.13;1.55;;;;;;;;;;4992381;28;20069;-60
2022/04/21 13:23:54;;;;;;;3.05;1.60;;;;;;;;;;5007995;28;20058;-58
2022/04/21 13:26:22;;;;;;;2.95;1.40;;;;;;;;;;4982167;28;20076;-59
2022/04/21 13:28:48;;;;;;;4.35;1.73;;;;;;;;;;4989378;28;20164;-59
2022/04/21 13:34:02;;;;;;;3.50;1.70;;;;;;;;;;4990927;28;20100;-59
2022/04/21 13:36:29;;;;;;;;;;;;;;;;;;4982915;28;20045;-60
2022/04/21 13:38:55;;;;;;;5.38;1.58;;;;;;;;;;4986714;28;19925;-59
2022/04/21 13:41:22;;;;;;;3.25;1.70;;;;;;;;;;4984465;28;20157;-59
2022/04/21 13:43:50;;;;;;;9.57;1.98;;;;;;;;;;4991393;28;20136;-60
2022/04/21 13:46:18;;;;;;;3.05;1.42;;;;;;;;;;4984434;28;20053;-59
2022/04/21 13:48:45;;;;;;;3.38;1.92;;;;;;;;;;4990623;28;20058;-59
2022/04/21 13:51:12;;;;;;;6.75;1.50;;;;;;;;;;4985925;28;20050;-59
2022/04/21 13:53:39;;;;;;;5.90;1.40;;;;;;;;;;4990127;28;20053;-59
2022/04/21 13:56:07;;;;;;;4.60;1.65;;;;;;;;;;4993596;28;20073;-60
2022/04/21 13:58:33;;;;;;;9.45;1.50;;;;;;;;;;4989938;28;20081;-59
2022/04/21 14:01:00;;;;;;;3.03;1.15;;;;;;;;;;4995311;28;20160;-59
2022/04/21 14:03:32;;;;;;;5.05;1.48;;;;;;;;;;4988063;28;20089;-59
2022/04/21 14:05:59;;;;;;;5.53;1.55;;;;;;;;;;4992305;28;20101;-61
2022/04/21 14:08:26;;;;;;;4.07;1.45;;;;;;;;;;4974230;28;20122;-58
2022/04/21 14:10:53;;;;;;;4.85;1.77;;;;;;;;;;4975700;28;20064;-60
2022/04/21 14:13:19;;;;;;;3.53;1.73;;;;;;;;;;4970116;28;20046;-60
2022/04/21 14:15:46;;;;;;;4.00;1.70;;;;;;;;;;4995557;28;20066;-60
2022/04/21 14:18:12;;;;;;;6.00;1.80;;;;;;;;;;4985172;28;20054;-61
2022/04/21 14:20:42;;;;;;;5.03;2.38;;;;;;;;;;4971716;28;20113;-61
2022/04/21 14:23:09;;;;;;;4.25;1.55;;;;;;;;;;4974903;28;20050;-59
2022/04/21 14:25:36;;;;;;;3.63;1.33;;;;;;;;;;4977651;28;20081;-59
2022/04/21 14:28:03;;;;;;;4.15;1.70;;;;;;;;;;4987520;28;20057;-60
2022/04/21 14:30:30;;;;;;;4.20;1.60;;;;;;;;;;4972419;28;20085;-59
2022/04/21 14:32:56;;;;;;;3.35;1.27;;;;;;;;;;4967496;28;20064;-60
2022/04/21 14:35:23;;;;;;;6.40;1.50;;;;;;;;;;4978616;28;20139;-60
2022/04/21 14:46:06;;;;;;;4.15;1.58;;;;;;;;;;4975525;28;20259;-59
2022/04/21 14:48:32;;;;;;;4.95;1.27;;;;;;;;;;4968127;28;20072;-60
2022/04/21 14:50:59;;;;;;;5.28;1.92;;;;;;;;;;4977934;28;20131;-61
2022/04/21 14:53:28;;;;;;;4.60;1.90;;;;;;;;;;4995529;28;20076;-59
2022/04/21 14:55:54;;;;;;;2.60;1.25;;;;;;;;;;4984823;28;20113;-60
2022/04/21 14:58:21;;;;;;;5.50;1.35;;;;;;;;;;4992017;28;20058;-59
2022/04/21 15:00:48;;;;;;;5.47;1.00;;;;;;;;;;4969472;28;20058;-59
2022/04/21 15:03:15;;;;;;;4.10;1.45;;;;;;;;;;4979476;28;20057;-59
2022/04/21 15:05:42;;;;;;;2.53;1.23;;;;;;;;;;4968331;28;20045;-60
2022/04/21 15:08:09;;;;;;;3.92;1.35;;;;;;;;;;4973917;28;20394;-59
2022/04/21 15:10:39;;;;;;;3.63;1.50;;;;;;;;;;4969080;28;20488;-59
2022/04/21 15:13:07;;;;;;;6.40;1.60;;;;;;;;;;4992864;28;20138;-59
2022/04/21 15:15:33;;;;;;;4.13;1.20;;;;;;;;;;4966500;28;20058;-59
2022/04/21 15:18:00;;;;;;;3.65;1.45;;;;;;;;;;4969558;28;20054;-59
2022/04/21 15:20:28;;;;;;;1.95;1.17;;;;;;;;;;4966847;28;20071;-59
2022/04/21 15:22:55;;;;;;;4.38;1.38;;;;;;;;;;4970558;28;20062;-60
2022/04/21 15:25:22;;;;;;;2.45;1.10;;;;;;;;;;4966302;28;20057;-58
2022/04/21 15:27:50;;;;;;;2.63;1.10;;;;;;;;;;4971719;28;20054;-59
2022/04/21 15:30:17;;;;;;;;;;;;;;;;;;4965196;28;20057;-59
2022/04/21 15:32:43;;;;;;;2.40;1.20;;;;;;;;;;4973312;28;19948;-59
2022/04/21 15:35:11;;;;;;;4.90;1.83;;;;;;;;;;4973290;28;20101;-58
2022/04/21 15:37:40;;;;;;;5.45;1.75;;;;;;;;;;4966293;28;20046;-59
2022/04/21 15:40:07;;;;;;;3.67;1.10;;;;;;;;;;4970354;28;20054;-59
2022/04/21 15:42:34;;;;;;;4.35;1.50;;;;;;;;;;4964307;28;20050;-59
2022/04/21 15:45:08;;;;;;;2.25;1.15;;;;;;;;;;4972943;28;20137;-61
2022/04/21 15:47:34;;;;;;;3.88;1.25;;;;;;;;;;4964805;28;20054;-60
2022/04/21 15:50:01;;;;;;;4.00;1.58;;;;;;;;;;4974578;28;20057;-60
2022/04/21 15:52:28;;;;;;;5.05;1.63;;;;;;;;;;4967273;28;20121;-61